Time;durP1;ratioP1;P1;durP2;ratioP2;P2;SDS_P1;SDS_P2;PMS_P1;PMS_P2;Temp;Humidity;BMP_temperature;BMP_pressure;BME280_temperature;BME280_humidity;BME280_pressure;Samples;Min_cycle;Max_cycle;Signal;HPM_P1;HPM_P2
2022/09/20 00:00:11;;;;;;;6.47;3.70;;;;;;;;;;5030846;28;20453;-45
2022/09/20 00:02:37;;;;;;;13.13;4.80;;;;;;;;;;5044139;28;20436;-45
2022/09/20 00:05:03;;;;;;;14.30;3.80;;;;;;;;;;5051687;28;20746;-44
2022/09/20 00:07:29;;;;;;;8.57;3.50;;;;;;;;;;5038906;28;20438;-45
2022/09/20 00:09:56;;;;;;;8.70;5.10;;;;;;;;;;5030952;28;20893;-45
2022/09/20 00:12:22;;;;;;;11.27;5.10;;;;;;;;;;5040970;28;20413;-44
2022/09/20 00:14:48;;;;;;;11.20;4.53;;;;;;;;;;5050490;28;20406;-44
2022/09/20 00:17:14;;;;;;;8.37;4.93;;;;;;;;;;5042093;28;20449;-45
2022/09/20 00:19:40;;;;;;;11.00;4.60;;;;;;;;;;5030856;28;20457;-45
2022/09/20 00:22:06;;;;;;;8.00;4.90;;;;;;;;;;5037247;28;20470;-46
2022/09/20 00:24:35;;;;;;;8.93;5.33;;;;;;;;;;5051343;28;20398;-45
2022/09/20 00:27:01;;;;;;;7.57;4.73;;;;;;;;;;5047976;28;20937;-45
2022/09/20 00:29:27;;;;;;;18.50;4.80;;;;;;;;;;5034461;28;20481;-45
2022/09/20 00:31:53;;;;;;;9.83;4.47;;;;;;;;;;5038201;28;20436;-45
2022/09/20 00:37:03;;;;;;;15.27;4.97;;;;;;;;;;5049457;28;20456;-45
2022/09/20 00:39:32;;;;;;;17.77;5.70;;;;;;;;;;5034330;28;20394;-45
2022/09/20 00:41:58;;;;;;;9.03;4.97;;;;;;;;;;5037596;28;20412;-45
2022/09/20 00:44:44;;;;;;;11.07;5.13;;;;;;;;;;5042361;28;20501;-44
2022/09/20 00:47:20;;;;;;;14.00;4.70;;;;;;;;;;5034370;28;20414;-43
2022/09/20 00:49:47;;;;;;;7.70;4.87;;;;;;;;;;5034118;28;20409;-43
2022/09/20 00:52:13;;;;;;;14.70;5.40;;;;;;;;;;5037574;28;20492;-44
2022/09/20 00:54:39;;;;;;;7.47;5.00;;;;;;;;;;5054339;28;20408;-43
2022/09/20 00:57:05;;;;;;;13.90;5.50;;;;;;;;;;5051401;28;20440;-45
2022/09/20 00:59:36;;;;;;;13.27;6.40;;;;;;;;;;5033680;28;20468;-43
2022/09/20 01:02:06;;;;;;;11.17;4.73;;;;;;;;;;5033697;28;20449;-43
2022/09/20 01:04:33;;;;;;;13.33;5.37;;;;;;;;;;5053551;28;20409;-43
2022/09/20 01:07:01;;;;;;;8.17;5.03;;;;;;;;;;5052958;28;20802;-43
2022/09/20 01:09:27;;;;;;;14.50;4.53;;;;;;;;;;5033228;28;20438;-44
2022/09/20 01:11:54;;;;;;;14.50;6.27;;;;;;;;;;5033060;28;20434;-43
2022/09/20 01:14:22;;;;;;;8.87;5.13;;;;;;;;;;5052412;28;20410;-44
2022/09/20 01:16:48;;;;;;;7.53;5.10;;;;;;;;;;5053296;28;20425;-43
2022/09/20 01:19:35;;;;;;;14.80;5.57;;;;;;;;;;5034862;28;20416;-44
2022/09/20 01:22:03;;;;;;;17.90;5.77;;;;;;;;;;5032954;28;20432;-43
2022/09/20 01:24:29;;;;;;;8.47;5.10;;;;;;;;;;5052311;28;20412;-44
2022/09/20 01:27:07;;;;;;;9.00;4.73;;;;;;;;;;5053071;28;20421;-43
2022/09/20 01:29:36;;;;;;;16.73;6.30;;;;;;;;;;5033047;28;20409;-43
2022/09/20 01:32:05;;;;;;;14.43;5.40;;;;;;;;;;5032800;28;20709;-43
2022/09/20 01:34:35;;;;;;;11.73;6.10;;;;;;;;;;5051423;28;20413;-43
2022/09/20 01:37:10;;;;;;;8.97;5.07;;;;;;;;;;5052411;28;20418;-43
2022/09/20 01:39:54;;;;;;;14.07;6.30;;;;;;;;;;5033657;28;20460;-43
2022/09/20 01:42:24;;;;;;;10.07;5.47;;;;;;;;;;5033161;28;20470;-44
2022/09/20 01:45:08;;;;;;;9.40;5.50;;;;;;;;;;5033058;28;20437;-43
2022/09/20 01:47:43;;;;;;;11.60;5.60;;;;;;;;;;5033837;28;20459;-44
2022/09/20 01:50:19;;;;;;;12.27;6.43;;;;;;;;;;5032451;28;20680;-43
2022/09/20 01:52:47;;;;;;;17.20;5.93;;;;;;;;;;5051807;28;20419;-44
2022/09/20 01:55:14;;;;;;;9.10;5.13;;;;;;;;;;5052806;28;20425;-44
2022/09/20 01:57:46;;;;;;;16.67;6.93;;;;;;;;;;5033882;28;20493;-46
2022/09/20 02:00:18;;;;;;;19.20;6.70;;;;;;;;;;5031945;28;20465;-43
2022/09/20 02:02:44;;;;;;;11.07;6.40;;;;;;;;;;5049960;28;20437;-46
2022/09/20 02:05:19;;;;;;;11.80;6.20;;;;;;;;;;5052607;28;20735;-43
2022/09/20 02:07:46;;;;;;;12.30;6.00;;;;;;;;;;5034075;28;20441;-44
2022/09/20 02:10:24;;;;;;;10.80;5.77;;;;;;;;;;5031972;28;20489;-43
2022/09/20 02:12:55;;;;;;;7.67;5.90;;;;;;;;;;5050178;28;20455;-43
2022/09/20 02:15:35;;;;;;;11.67;6.13;;;;;;;;;;5052433;28;20409;-43
2022/09/20 02:18:10;;;;;;;12.07;5.17;;;;;;;;;;5033232;28;20495;-44
2022/09/20 02:20:44;;;;;;;8.53;5.00;;;;;;;;;;5031586;28;20463;-45
2022/09/20 02:23:16;;;;;;;12.43;4.80;;;;;;;;;;5046201;28;20456;-44
2022/09/20 02:26:05;;;;;;;15.90;7.67;;;;;;;;;;5032873;28;20399;-45
2022/09/20 02:28:45;;;;;;;13.17;5.63;;;;;;;;;;5028724;28;20413;-45
2022/09/20 02:31:14;;;;;;;11.40;5.93;;;;;;;;;;5034383;28;21007;-46
2022/09/20 02:33:49;;;;;;;15.47;6.30;;;;;;;;;;5051842;28;20455;-46
2022/09/20 02:36:24;;;;;;;11.50;7.13;;;;;;;;;;5048452;28;20555;-46
2022/09/20 02:39:09;;;;;;;10.60;5.13;;;;;;;;;;5031703;28;20411;-46
2022/09/20 02:41:38;;;;;;;13.83;6.10;;;;;;;;;;5035576;28;21050;-46
2022/09/20 02:44:04;;;;;;;12.40;5.83;;;;;;;;;;5052305;28;20615;-46
2022/09/20 02:46:33;;;;;;;15.30;6.37;;;;;;;;;;5047267;28;20984;-46
2022/09/20 02:49:02;;;;;;;14.47;6.67;;;;;;;;;;5031703;28;20962;-45
2022/09/20 02:51:39;;;;;;;10.47;6.43;;;;;;;;;;5034086;28;20427;-43
2022/09/20 02:54:05;;;;;;;10.20;5.80;;;;;;;;;;5051617;28;20909;-44
2022/09/20 02:56:40;;;;;;;12.60;5.93;;;;;;;;;;5048208;28;20441;-43
2022/09/20 02:59:29;;;;;;;10.77;7.53;;;;;;;;;;5031584;28;20413;-43
2022/09/20 03:01:55;;;;;;;10.50;6.07;;;;;;;;;;5030702;28;20437;-45
2022/09/20 03:04:31;;;;;;;10.80;6.70;;;;;;;;;;5031645;28;20402;-45
2022/09/20 03:07:08;;;;;;;14.33;6.80;;;;;;;;;;5037145;28;20448;-45
2022/09/20 03:09:43;;;;;;;10.90;5.57;;;;;;;;;;5051089;28;20478;-47
2022/09/20 03:12:27;;;;;;;14.03;6.50;;;;;;;;;;5044107;28;20409;-45
2022/09/20 03:15:11;;;;;;;15.50;7.00;;;;;;;;;;5031310;28;20448;-46
2022/09/20 03:17:43;;;;;;;13.33;6.50;;;;;;;;;;5041020;28;20447;-46
2022/09/20 03:20:24;;;;;;;16.00;6.57;;;;;;;;;;5050976;28;20508;-46
2022/09/20 03:23:05;;;;;;;18.77;7.20;;;;;;;;;;5039143;28;20428;-46
2022/09/20 03:25:41;;;;;;;14.90;6.50;;;;;;;;;;5030887;28;20508;-46
2022/09/20 03:28:10;;;;;;;12.90;6.33;;;;;;;;;;5044026;28;20437;-46
2022/09/20 03:30:36;;;;;;;13.83;7.00;;;;;;;;;;5050715;28;20762;-45
2022/09/20 03:33:16;;;;;;;12.57;6.87;;;;;;;;;;5038481;28;20417;-46
2022/09/20 03:36:07;;;;;;;13.10;7.53;;;;;;;;;;5031129;28;20416;-45
2022/09/20 03:38:43;;;;;;;12.03;6.37;;;;;;;;;;5046105;28;20408;-45
2022/09/20 03:41:19;;;;;;;16.20;7.30;;;;;;;;;;5050512;28;20469;-46
2022/09/20 03:43:53;;;;;;;12.33;7.10;;;;;;;;;;5034201;28;20485;-46
2022/09/20 03:46:24;;;;;;;17.30;8.10;;;;;;;;;;5030913;28;20421;-46
2022/09/20 03:49:05;;;;;;;17.30;7.60;;;;;;;;;;5047144;28;20946;-46
2022/09/20 03:51:34;;;;;;;16.03;8.43;;;;;;;;;;5050173;28;20405;-46
2022/09/20 03:54:03;;;;;;;22.70;8.83;;;;;;;;;;5033495;28;20426;-46
2022/09/20 03:56:38;;;;;;;29.80;8.67;;;;;;;;;;5030879;28;20437;-46
2022/09/20 03:59:13;;;;;;;13.67;9.03;;;;;;;;;;5047909;28;20438;-45
2022/09/20 04:01:58;;;;;;;24.03;9.60;;;;;;;;;;5052438;28;20464;-45
2022/09/20 04:04:42;;;;;;;16.93;9.37;;;;;;;;;;5035361;28;20421;-45
2022/09/20 04:07:18;;;;;;;25.43;9.30;;;;;;;;;;5035112;28;20928;-45
2022/09/20 04:09:50;;;;;;;21.40;9.27;;;;;;;;;;5034385;28;20892;-44
2022/09/20 04:12:35;;;;;;;16.13;9.43;;;;;;;;;;5034152;28;20424;-45
2022/09/20 04:15:15;;;;;;;15.90;9.00;;;;;;;;;;5054581;28;20400;-44
2022/09/20 04:17:51;;;;;;;22.87;9.70;;;;;;;;;;5039210;28;20488;-46
2022/09/20 04:20:22;;;;;;;19.03;9.13;;;;;;;;;;5034272;28;20499;-46
2022/09/20 04:22:50;;;;;;;14.77;9.60;;;;;;;;;;5034019;28;20457;-46
2022/09/20 04:25:26;;;;;;;17.10;8.63;;;;;;;;;;5034524;28;20475;-45
2022/09/20 04:27:56;;;;;;;14.53;8.87;;;;;;;;;;5052633;28;20555;-46
2022/09/20 04:30:28;;;;;;;17.80;11.00;;;;;;;;;;5054043;28;20414;-46
2022/09/20 04:33:13;;;;;;;17.77;9.20;;;;;;;;;;5034241;28;20418;-46
2022/09/20 04:38:29;;;;;;;19.80;10.17;;;;;;;;;;5034216;28;20931;-46
2022/09/20 04:41:07;;;;;;;14.43;9.37;;;;;;;;;;5034634;28;20486;-46
2022/09/20 04:43:52;;;;;;;18.03;9.00;;;;;;;;;;5033970;28;20438;-46
2022/09/20 04:46:37;;;;;;;15.00;8.73;;;;;;;;;;5042030;28;20932;-47
2022/09/20 04:49:03;;;;;;;16.10;9.70;;;;;;;;;;5053748;28;20482;-47
2022/09/20 04:51:50;;;;;;;20.93;9.00;;;;;;;;;;5034375;28;20508;-46
2022/09/20 04:54:16;;;;;;;22.40;11.47;;;;;;;;;;5035806;28;20410;-46
2022/09/20 04:56:58;;;;;;;19.83;10.33;;;;;;;;;;5053649;28;20420;-46
2022/09/20 04:59:35;;;;;;;17.03;9.33;;;;;;;;;;5050797;28;20947;-45
2022/09/20 05:02:02;;;;;;;16.70;9.87;;;;;;;;;;5033189;28;20421;-46
2022/09/20 05:04:39;;;;;;;15.53;9.80;;;;;;;;;;5035356;28;20414;-46
2022/09/20 05:07:21;;;;;;;14.70;9.13;;;;;;;;;;5053624;28;20500;-46
2022/09/20 05:10:14;;;;;;;22.23;10.90;;;;;;;;;;5048663;28;20942;-46
2022/09/20 05:12:40;;;;;;;23.60;12.17;;;;;;;;;;5032047;28;20403;-46
2022/09/20 05:15:07;;;;;;;16.70;11.03;;;;;;;;;;5033686;28;20417;-45
2022/09/20 05:17:36;;;;;;;12.60;8.40;;;;;;;;;;5033487;28;20422;-46
2022/09/20 05:20:02;;;;;;;20.00;8.47;;;;;;;;;;5034018;28;20453;-46
2022/09/20 05:22:47;;;;;;;14.80;8.77;;;;;;;;;;5033135;28;20489;-45
2022/09/20 05:25:18;;;;;;;14.93;9.33;;;;;;;;;;5038923;28;20769;-46
2022/09/20 05:27:48;;;;;;;15.90;9.33;;;;;;;;;;5052822;28;20490;-46
2022/09/20 05:30:19;;;;;;;21.70;10.00;;;;;;;;;;5051691;28;20909;-46
2022/09/20 05:32:47;;;;;;;17.90;9.93;;;;;;;;;;5052941;28;20425;-45
2022/09/20 05:35:17;;;;;;;15.60;9.80;;;;;;;;;;5048036;28;20984;-46
2022/09/20 05:37:46;;;;;;;15.40;9.50;;;;;;;;;;5032907;28;20849;-45
2022/09/20 05:40:31;;;;;;;17.77;8.50;;;;;;;;;;5033855;28;20453;-46
2022/09/20 05:43:29;;;;;;;20.80;8.70;;;;;;;;;;5032626;28;20400;-45
2022/09/20 05:46:03;;;;;;;17.83;9.47;;;;;;;;;;5040016;28;20417;-45
2022/09/20 05:48:39;;;;;;;17.10;9.67;;;;;;;;;;5052776;28;20479;-44
2022/09/20 05:51:28;;;;;;;19.77;10.60;;;;;;;;;;5050599;28;20515;-43
2022/09/20 05:54:07;;;;;;;20.13;11.30;;;;;;;;;;5052752;28;20416;-43
2022/09/20 05:56:47;;;;;;;17.20;10.73;;;;;;;;;;5039403;28;20441;-47
2022/09/20 05:59:31;;;;;;;22.13;10.83;;;;;;;;;;5033069;28;20394;-44
2022/09/20 06:02:00;;;;;;;13.83;9.60;;;;;;;;;;5047139;28;20460;-44
2022/09/20 06:04:35;;;;;;;23.37;11.37;;;;;;;;;;5052519;28;20400;-45
2022/09/20 06:07:01;;;;;;;18.87;10.97;;;;;;;;;;5037176;28;20433;-43
2022/09/20 06:09:32;;;;;;;13.23;9.77;;;;;;;;;;5032464;28;20398;-44
2022/09/20 06:12:04;;;;;;;21.50;11.60;;;;;;;;;;5045861;28;20462;-44
2022/09/20 06:14:39;;;;;;;18.83;10.93;;;;;;;;;;5052132;28;20959;-48
2022/09/20 06:17:18;;;;;;;22.73;10.83;;;;;;;;;;5037656;28;20433;-45
2022/09/20 06:19:51;;;;;;;17.40;9.47;;;;;;;;;;5033036;28;20472;-45
2022/09/20 06:22:29;;;;;;;21.07;11.40;;;;;;;;;;5031844;28;20481;-45
2022/09/20 06:24:55;;;;;;;16.40;10.63;;;;;;;;;;5047563;28;20905;-45
2022/09/20 06:27:24;;;;;;;20.90;10.20;;;;;;;;;;5052122;28;20429;-45
2022/09/20 06:29:52;;;;;;;19.13;11.20;;;;;;;;;;5036979;28;20429;-45
2022/09/20 06:32:19;;;;;;;16.83;10.70;;;;;;;;;;5031662;28;20406;-46
2022/09/20 06:34:46;;;;;;;16.33;9.50;;;;;;;;;;5044548;28;20414;-46
2022/09/20 06:43:04;;;;;;;14.87;10.60;;;;;;;;;;5031488;28;20434;-46
2022/09/20 06:45:30;;;;;;;22.50;9.80;;;;;;;;;;5049700;28;20410;-50
2022/09/20 06:47:56;;;;;;;14.10;9.67;;;;;;;;;;5051654;28;20471;-45
2022/09/20 06:50:23;;;;;;;15.47;9.97;;;;;;;;;;5035022;28;20418;-44
2022/09/20 06:52:49;;;;;;;13.60;9.00;;;;;;;;;;5031251;28;20406;-44
2022/09/20 06:55:20;;;;;;;17.30;10.30;;;;;;;;;;5045867;28;20425;-44
2022/09/20 06:57:46;;;;;;;13.77;10.37;;;;;;;;;;5051352;28;20429;-43
2022/09/20 07:00:15;;;;;;;16.27;9.40;;;;;;;;;;5037140;28;20455;-43
2022/09/20 07:02:42;;;;;;;14.63;8.53;;;;;;;;;;5031034;28;20511;-44
2022/09/20 07:05:14;;;;;;;27.23;10.07;;;;;;;;;;5043732;28;20414;-44
2022/09/20 07:07:40;;;;;;;16.10;9.73;;;;;;;;;;5051275;28;20456;-44
2022/09/20 07:10:06;;;;;;;15.67;9.00;;;;;;;;;;5039300;28;20419;-44
2022/09/20 07:12:33;;;;;;;13.07;9.40;;;;;;;;;;5030890;28;20410;-44
2022/09/20 07:14:59;;;;;;;16.40;10.23;;;;;;;;;;5032301;28;20509;-44
2022/09/20 07:17:25;;;;;;;13.33;8.20;;;;;;;;;;5031353;28;20513;-45
2022/09/20 07:19:51;;;;;;;15.90;9.80;;;;;;;;;;5039308;28;20429;-45
2022/09/20 07:22:17;;;;;;;17.73;9.47;;;;;;;;;;5050752;28;20402;-43
2022/09/20 07:24:43;;;;;;;23.20;9.53;;;;;;;;;;5049416;28;20413;-43
2022/09/20 07:27:10;;;;;;;12.90;9.03;;;;;;;;;;5051036;28;20928;-43
2022/09/20 07:29:36;;;;;;;18.67;10.97;;;;;;;;;;5045239;28;20501;-44
2022/09/20 07:32:02;;;;;;;21.53;8.40;;;;;;;;;;5030780;28;20895;-44
2022/09/20 07:34:28;;;;;;;19.80;9.47;;;;;;;;;;5034777;28;20422;-43
2022/09/20 07:36:56;;;;;;;13.83;8.73;;;;;;;;;;5050139;28;20429;-44
2022/09/20 07:39:22;;;;;;;16.30;9.50;;;;;;;;;;5049192;28;20418;-43
2022/09/20 07:41:49;;;;;;;17.90;9.70;;;;;;;;;;5050182;28;20456;-43
2022/09/20 07:44:24;;;;;;;10.23;8.23;;;;;;;;;;5049976;28;20385;-47
2022/09/20 07:46:51;;;;;;;12.87;8.43;;;;;;;;;;5030747;28;20430;-44
2022/09/20 07:49:17;;;;;;;15.50;9.50;;;;;;;;;;5030461;28;20758;-43
2022/09/20 07:51:43;;;;;;;15.33;8.90;;;;;;;;;;5049524;28;20176;-44
2022/09/20 07:54:09;;;;;;;9.90;7.93;;;;;;;;;;5039825;28;20412;-44
2022/09/20 07:56:35;;;;;;;9.87;6.10;;;;;;;;;;5039688;28;20815;-44
2022/09/20 07:59:01;;;;;;;9.00;6.40;;;;;;;;;;5033950;28;20951;-44
2022/09/20 08:01:27;;;;;;;15.77;6.47;;;;;;;;;;5050432;28;20457;-43
2022/09/20 08:03:54;;;;;;;6.53;5.63;;;;;;;;;;5045104;28;20400;-44
2022/09/20 08:06:20;;;;;;;9.03;5.63;;;;;;;;;;5030624;28;20427;-44
2022/09/20 08:08:47;;;;;;;9.03;5.50;;;;;;;;;;5040080;28;20420;-44
2022/09/20 08:11:17;;;;;;;9.27;5.80;;;;;;;;;;5031566;28;20417;-44
2022/09/20 08:13:47;;;;;;;7.50;5.90;;;;;;;;;;5034270;28;20421;-44
2022/09/20 08:16:14;;;;;;;6.90;5.60;;;;;;;;;;5050782;28;20919;-44
2022/09/20 08:18:45;;;;;;;9.10;5.73;;;;;;;;;;5045057;28;20414;-47
2022/09/20 08:21:11;;;;;;;10.70;6.33;;;;;;;;;;5033680;28;20936;-44
2022/09/20 08:23:37;;;;;;;7.00;5.17;;;;;;;;;;5046949;28;20482;-44
2022/09/20 08:26:04;;;;;;;10.20;5.83;;;;;;;;;;5042264;28;20402;-44
2022/09/20 08:28:31;;;;;;;7.70;5.67;;;;;;;;;;5050927;28;20372;-47
2022/09/20 08:31:01;;;;;;;7.70;5.63;;;;;;;;;;5032606;28;20452;-45
2022/09/20 08:33:27;;;;;;;8.33;5.00;;;;;;;;;;5031099;28;20481;-44
2022/09/20 08:35:53;;;;;;;13.90;6.20;;;;;;;;;;5030552;28;20384;-45
2022/09/20 08:38:21;;;;;;;9.70;5.70;;;;;;;;;;5042273;28;20396;-46
2022/09/20 08:40:48;;;;;;;7.20;5.40;;;;;;;;;;5030582;28;20479;-44
2022/09/20 08:43:14;;;;;;;9.87;6.10;;;;;;;;;;5030489;28;20414;-46
2022/09/20 08:45:41;;;;;;;15.63;5.93;;;;;;;;;;5034301;28;20414;-44
2022/09/20 08:48:11;;;;;;;9.33;5.40;;;;;;;;;;5042574;28;20859;-44
2022/09/20 08:50:37;;;;;;;12.73;7.67;;;;;;;;;;5034191;28;20909;-44
2022/09/20 08:53:04;;;;;;;9.70;5.90;;;;;;;;;;5044480;28;20471;-44
2022/09/20 08:55:31;;;;;;;9.43;5.83;;;;;;;;;;5039802;28;20464;-44
2022/09/20 08:57:58;;;;;;;9.40;5.43;;;;;;;;;;5051806;28;20439;-44
2022/09/20 09:00:25;;;;;;;12.67;6.20;;;;;;;;;;5041517;28;20478;-44
2022/09/20 09:02:53;;;;;;;9.23;5.80;;;;;;;;;;5033729;28;20433;-44
2022/09/20 09:05:30;;;;;;;9.20;6.70;;;;;;;;;;5045581;28;20413;-46
2022/09/20 09:07:57;;;;;;;14.33;5.63;;;;;;;;;;5053957;28;20425;-44
2022/09/20 09:10:23;;;;;;;10.73;5.13;;;;;;;;;;5040710;28;20472;-44
2022/09/20 09:12:49;;;;;;;11.90;6.30;;;;;;;;;;5053696;28;20499;-44
2022/09/20 09:15:32;;;;;;;11.43;5.53;;;;;;;;;;5038806;28;20418;-44
2022/09/20 09:17:59;;;;;;;9.87;5.70;;;;;;;;;;5037520;28;20491;-44
2022/09/20 09:20:25;;;;;;;15.40;6.27;;;;;;;;;;5043271;28;20450;-44
2022/09/20 09:23:07;;;;;;;9.93;5.70;;;;;;;;;;5053570;28;20403;-45
2022/09/20 09:25:37;;;;;;;9.60;5.43;;;;;;;;;;5036447;28;20413;-44
2022/09/20 09:28:13;;;;;;;13.40;5.57;;;;;;;;;;5051696;28;20433;-44
2022/09/20 09:30:43;;;;;;;12.57;5.83;;;;;;;;;;5038736;28;20504;-47
2022/09/20 09:33:12;;;;;;;8.53;5.70;;;;;;;;;;5047557;28;20436;-44
2022/09/20 09:35:38;;;;;;;7.63;4.50;;;;;;;;;;5053325;28;20415;-44
2022/09/20 09:38:04;;;;;;;6.90;4.37;;;;;;;;;;5046607;28;20445;-44
2022/09/20 09:40:31;;;;;;;6.27;4.63;;;;;;;;;;5033934;28;20459;-45
2022/09/20 09:43:02;;;;;;;9.03;4.50;;;;;;;;;;5048532;28;20416;-44
2022/09/20 09:45:37;;;;;;;10.67;4.13;;;;;;;;;;5051578;28;21046;-44
2022/09/20 09:48:17;;;;;;;7.13;4.17;;;;;;;;;;5051023;28;20411;-44
2022/09/20 09:50:43;;;;;;;9.33;3.60;;;;;;;;;;5044611;28;20454;-46
2022/09/20 09:53:14;;;;;;;5.93;3.43;;;;;;;;;;5052053;28;20469;-47
2022/09/20 09:55:43;;;;;;;5.87;2.97;;;;;;;;;;5045581;28;21030;-44
2022/09/20 09:58:21;;;;;;;9.43;3.00;;;;;;;;;;5034277;28;20418;-44
2022/09/20 10:00:47;;;;;;;5.47;3.30;;;;;;;;;;5051121;28;20427;-45
2022/09/20 10:03:22;;;;;;;8.07;3.63;;;;;;;;;;5051783;28;20513;-46
2022/09/20 10:06:03;;;;;;;5.03;2.80;;;;;;;;;;5052215;28;20427;-44
2022/09/20 10:08:34;;;;;;;7.50;3.27;;;;;;;;;;5046473;28;20414;-46
2022/09/20 10:11:00;;;;;;;4.40;3.23;;;;;;;;;;5032580;28;20429;-45
2022/09/20 10:13:31;;;;;;;10.70;3.50;;;;;;;;;;5045702;28;20772;-45
2022/09/20 10:16:16;;;;;;;5.27;2.43;;;;;;;;;;5050612;28;20392;-47
2022/09/20 10:18:43;;;;;;;3.93;2.47;;;;;;;;;;5036770;28;20426;-47
2022/09/20 10:21:28;;;;;;;7.70;3.13;;;;;;;;;;5035339;28;20521;-47
2022/09/20 10:23:55;;;;;;;4.27;2.60;;;;;;;;;;5052287;28;20391;-47
2022/09/20 10:26:30;;;;;;;5.20;2.40;;;;;;;;;;5032538;28;20431;-47
2022/09/20 10:29:16;;;;;;;9.00;3.10;;;;;;;;;;5036855;28;20482;-46
2022/09/20 10:31:55;;;;;;;11.07;3.93;;;;;;;;;;5045134;28;20506;-46
2022/09/20 10:34:27;;;;;;;8.47;2.97;;;;;;;;;;5036377;28;20424;-47
2022/09/20 10:36:59;;;;;;;7.17;2.30;;;;;;;;;;5036595;28;20932;-46
2022/09/20 10:39:35;;;;;;;6.00;2.43;;;;;;;;;;5032136;28;20397;-47
2022/09/20 10:44:55;;;;;;;4.93;2.23;;;;;;;;;;5052461;28;20413;-46
2022/09/20 10:47:27;;;;;;;4.90;2.43;;;;;;;;;;5050626;28;20431;-45
2022/09/20 10:49:55;;;;;;;3.30;2.70;;;;;;;;;;5044674;28;20428;-45
2022/09/20 10:52:50;;;;;;;6.80;3.10;;;;;;;;;;5038804;28;20394;-45
2022/09/20 10:55:17;;;;;;;10.13;4.17;;;;;;;;;;5046987;28;20796;-44
2022/09/20 10:57:49;;;;;;;4.73;2.50;;;;;;;;;;5035101;28;20489;-44
2022/09/20 11:00:31;;;;;;;3.83;3.10;;;;;;;;;;5040054;28;20455;-44
2022/09/20 11:03:03;;;;;;;6.07;2.80;;;;;;;;;;5051470;28;20407;-45
2022/09/20 11:05:32;;;;;;;3.63;2.27;;;;;;;;;;5032662;28;20419;-45
2022/09/20 11:08:01;;;;;;;5.80;3.07;;;;;;;;;;5031728;28;20422;-47
2022/09/20 11:10:29;;;;;;;9.47;3.40;;;;;;;;;;5048221;28;20476;-47
2022/09/20 11:13:01;;;;;;;6.30;2.27;;;;;;;;;;5048482;28;20406;-46
2022/09/20 11:15:35;;;;;;;17.13;9.53;;;;;;;;;;5031517;28;20514;-47
2022/09/20 11:18:22;;;;;;;3.10;2.17;;;;;;;;;;5035123;28;20433;-50
2022/09/20 11:20:56;;;;;;;6.77;2.20;;;;;;;;;;5036568;28;20710;-50
2022/09/20 11:23:24;;;;;;;4.93;2.33;;;;;;;;;;5044338;28;20481;-49
2022/09/20 11:26:01;;;;;;;2.70;1.97;;;;;;;;;;5047000;28;20418;-49
2022/09/20 11:28:31;;;;;;;6.17;1.90;;;;;;;;;;5035115;28;20927;-48
2022/09/20 11:31:03;;;;;;;8.30;2.63;;;;;;;;;;5049805;28;20417;-50
2022/09/20 11:33:33;;;;;;;4.77;2.37;;;;;;;;;;5051198;28;20895;-48
2022/09/20 11:36:02;;;;;;;4.80;2.13;;;;;;;;;;5044154;28;20400;-50
2022/09/20 11:38:41;;;;;;;3.30;1.70;;;;;;;;;;5032732;28;20409;-48
2022/09/20 11:41:26;;;;;;;10.27;2.07;;;;;;;;;;5038586;28;20448;-50
2022/09/20 11:43:53;;;;;;;7.83;1.70;;;;;;;;;;5054788;28;20486;-47
2022/09/20 11:46:29;;;;;;;4.10;1.60;;;;;;;;;;5052093;28;20732;-44
2022/09/20 11:49:01;;;;;;;6.97;1.80;;;;;;;;;;5051226;28;20467;-45
2022/09/20 11:51:34;;;;;;;3.80;1.83;;;;;;;;;;5034167;28;20928;-44
2022/09/20 11:54:13;;;;;;;5.67;1.73;;;;;;;;;;5035857;28;20408;-44
2022/09/20 11:56:39;;;;;;;1.43;1.00;;;;;;;;;;5036287;28;20798;-48
2022/09/20 11:59:19;;;;;;;2.43;1.40;;;;;;;;;;5031905;28;20424;-45
2022/09/20 12:01:45;;;;;;;4.97;2.00;;;;;;;;;;5031743;28;20464;-47
2022/09/20 12:04:14;;;;;;;3.17;1.70;;;;;;;;;;5046863;28;20734;-45
2022/09/20 12:06:41;;;;;;;3.77;1.97;;;;;;;;;;5039631;28;20805;-46
2022/09/20 12:09:22;;;;;;;3.10;1.93;;;;;;;;;;5031448;28;20422;-46
2022/09/20 12:11:50;;;;;;;3.50;1.90;;;;;;;;;;5050025;28;20432;-46
2022/09/20 12:14:23;;;;;;;3.27;1.97;;;;;;;;;;5043420;28;20421;-47
2022/09/20 12:16:49;;;;;;;3.77;2.20;;;;;;;;;;5032442;28;20449;-48
2022/09/20 12:19:33;;;;;;;2.10;1.40;;;;;;;;;;5031922;28;20810;-50
2022/09/20 12:21:59;;;;;;;5.30;2.63;;;;;;;;;;5031972;28;20892;-45
2022/09/20 12:24:28;;;;;;;4.83;1.53;;;;;;;;;;5045971;28;20505;-47
2022/09/20 12:26:55;;;;;;;4.73;2.27;;;;;;;;;;5042859;28;20415;-44
2022/09/20 12:29:24;;;;;;;5.90;1.83;;;;;;;;;;5050780;28;20883;-44
2022/09/20 12:31:51;;;;;;;4.20;1.53;;;;;;;;;;5037041;28;20502;-47
2022/09/20 12:34:17;;;;;;;5.07;1.80;;;;;;;;;;5054840;28;20411;-44
2022/09/20 12:36:45;;;;;;;2.20;1.67;;;;;;;;;;5037499;28;20439;-45
2022/09/20 12:39:11;;;;;;;3.87;2.30;;;;;;;;;;5038657;28;20965;-44
2022/09/20 12:41:54;;;;;;;3.80;1.80;;;;;;;;;;5053374;28;20549;-44
2022/09/20 12:44:32;;;;;;;4.87;1.77;;;;;;;;;;5048160;28;20382;-44
2022/09/20 12:47:16;;;;;;;3.83;2.10;;;;;;;;;;5044223;28;20443;-45
2022/09/20 12:55:26;;;;;;;4.50;1.73;;;;;;;;;;5053947;28;20417;-45
2022/09/20 12:57:54;;;;;;;4.53;1.70;;;;;;;;;;5035781;28;20426;-50
2022/09/20 13:00:49;;;;;;;4.13;2.20;;;;;;;;;;5039912;28;21068;-50
2022/09/20 13:03:20;;;;;;;5.90;1.93;;;;;;;;;;5031910;28;20461;-49
2022/09/20 13:05:47;;;;;;;2.53;1.67;;;;;;;;;;5047568;28;20418;-50
2022/09/20 13:08:24;;;;;;;4.53;1.63;;;;;;;;;;5053449;28;20551;-48
2022/09/20 13:10:58;;;;;;;6.80;1.90;;;;;;;;;;5044464;28;20453;-49
2022/09/20 13:13:33;;;;;;;2.77;1.70;;;;;;;;;;5038635;28;20508;-48
2022/09/20 13:16:00;;;;;;;6.50;2.00;;;;;;;;;;5042818;28;20467;-49
2022/09/20 13:18:27;;;;;;;4.67;2.17;;;;;;;;;;5053670;28;20397;-48
2022/09/20 13:20:54;;;;;;;5.97;2.07;;;;;;;;;;5051779;28;20571;-47
2022/09/20 13:23:26;;;;;;;4.17;1.70;;;;;;;;;;5051966;28;20408;-47
2022/09/20 13:25:56;;;;;;;4.30;2.00;;;;;;;;;;5034310;28;20422;-49
2022/09/20 13:28:39;;;;;;;5.80;1.70;;;;;;;;;;5037978;28;20504;-50
2022/09/20 13:31:20;;;;;;;4.67;2.10;;;;;;;;;;5041679;28;20414;-50
2022/09/20 13:33:46;;;;;;;6.20;1.90;;;;;;;;;;5049519;28;20904;-50
2022/09/20 13:36:13;;;;;;;2.20;2.00;;;;;;;;;;5052271;28;20449;-48
2022/09/20 13:38:39;;;;;;;4.43;2.10;;;;;;;;;;5053643;28;20411;-49
2022/09/20 13:41:08;;;;;;;6.10;2.00;;;;;;;;;;5043686;28;20456;-49
2022/09/20 13:43:37;;;;;;;6.00;2.13;;;;;;;;;;5033252;28;20482;-48
2022/09/20 13:46:15;;;;;;;5.07;4.57;;;;;;;;;;5038011;28;20406;-48
2022/09/20 13:48:41;;;;;;;3.07;2.20;;;;;;;;;;5042534;28;20413;-49
2022/09/20 13:51:24;;;;;;;6.27;1.90;;;;;;;;;;5051301;28;20905;-49
2022/09/20 13:53:50;;;;;;;4.50;2.50;;;;;;;;;;5052642;28;20448;-47
2022/09/20 13:56:22;;;;;;;5.43;1.83;;;;;;;;;;5047852;28;20442;-49
2022/09/20 13:58:49;;;;;;;6.13;1.83;;;;;;;;;;5052742;28;20399;-50
2022/09/20 14:01:41;;;;;;;3.40;2.00;;;;;;;;;;5037910;28;20992;-49
2022/09/20 14:04:12;;;;;;;6.43;1.70;;;;;;;;;;5046107;28;20447;-48
2022/09/20 14:06:38;;;;;;;2.57;2.37;;;;;;;;;;5049217;28;20981;-49
2022/09/20 14:09:06;;;;;;;5.47;2.37;;;;;;;;;;5032801;28;20400;-51
2022/09/20 14:11:32;;;;;;;2.17;2.00;;;;;;;;;;5046198;28;20926;-48
2022/09/20 14:14:00;;;;;;;4.03;2.10;;;;;;;;;;5052222;28;20386;-48
2022/09/20 14:16:30;;;;;;;3.50;2.33;;;;;;;;;;5033817;28;20493;-49
2022/09/20 14:18:58;;;;;;;4.50;1.70;;;;;;;;;;5051450;28;20390;-48
2022/09/20 14:21:25;;;;;;;2.00;1.40;;;;;;;;;;5035952;28;20560;-49
2022/09/20 14:23:52;;;;;;;3.83;2.10;;;;;;;;;;5041861;28;20485;-49
2022/09/20 14:26:23;;;;;;;8.13;3.83;;;;;;;;;;5047457;28;20446;-49
2022/09/20 14:28:49;;;;;;;3.40;1.90;;;;;;;;;;5037920;28;20427;-48
2022/09/20 14:31:32;;;;;;;4.20;1.70;;;;;;;;;;5046415;28;20422;-50
2022/09/20 14:34:00;;;;;;;3.33;2.50;;;;;;;;;;5047485;28;20430;-48
2022/09/20 14:36:27;;;;;;;1.37;1.27;;;;;;;;;;5050897;28;20417;-48
2022/09/20 14:38:55;;;;;;;2.80;1.80;;;;;;;;;;5052380;28;20397;-50
2022/09/20 14:41:31;;;;;;;7.67;2.20;;;;;;;;;;5038516;28;20453;-48
2022/09/20 14:43:58;;;;;;;1.83;1.50;;;;;;;;;;5032054;28;20389;-48
2022/09/20 14:46:29;;;;;;;5.03;1.40;;;;;;;;;;5043058;28;20453;-46
2022/09/20 14:49:15;;;;;;;8.40;1.70;;;;;;;;;;5052088;28;20931;-48
2022/09/20 14:51:41;;;;;;;2.83;1.50;;;;;;;;;;5030719;28;20427;-48
2022/09/20 14:54:07;;;;;;;2.63;1.77;;;;;;;;;;5039198;28;20403;-50
2022/09/20 14:56:35;;;;;;;5.20;1.43;;;;;;;;;;5051636;28;20515;-50
2022/09/20 14:59:02;;;;;;;3.13;1.93;;;;;;;;;;5036879;28;20865;-49
2022/09/20 15:01:28;;;;;;;2.27;1.73;;;;;;;;;;5044451;28;20430;-48
2022/09/20 15:03:54;;;;;;;5.47;1.70;;;;;;;;;;5044799;28;20410;-47
2022/09/20 15:06:20;;;;;;;2.40;1.50;;;;;;;;;;5044338;28;20430;-50
2022/09/20 15:08:46;;;;;;;5.33;4.63;;;;;;;;;;5051464;28;20393;-48
2022/09/20 15:11:13;;;;;;;2.13;1.20;;;;;;;;;;5040407;28;20419;-48
2022/09/20 15:13:39;;;;;;;2.50;1.40;;;;;;;;;;5033033;28;20444;-49
2022/09/20 15:16:06;;;;;;;4.70;2.70;;;;;;;;;;5031963;28;20838;-48
2022/09/20 15:18:35;;;;;;;8.43;5.97;;;;;;;;;;5040604;28;20450;-48
2022/09/20 15:21:01;;;;;;;2.63;1.60;;;;;;;;;;5043273;28;20425;-46